sensor_id;sensor_type;location;lat;lon;timestamp;pressure;altitude;pressure_sealevel;temperature
20058;BMP180;10189;49.546;7.906;2022-12-17T00:00:24;98746.00;;;-5.60
20058;BMP180;10189;49.546;7.906;2022-12-17T00:03:09;98754.00;;;-5.50
20058;BMP180;10189;49.546;7.906;2022-12-17T00:05:54;98754.00;;;-5.60
20058;BMP180;10189;49.546;7.906;2022-12-17T00:08:39;98755.00;;;-5.60
20058;BMP180;10189;49.546;7.906;2022-12-17T00:11:23;98755.00;;;-5.60
20058;BMP180;10189;49.546;7.906;2022-12-17T00:14:08;98765.00;;;-5.70
20058;BMP180;10189;49.546;7.906;2022-12-17T00:16:52;98765.00;;;-5.70
20058;BMP180;10189;49.546;7.906;2022-12-17T00:19:37;98769.00;;;-5.60
20058;BMP180;10189;49.546;7.906;2022-12-17T00:22:21;98763.00;;;-5.70
20058;BMP180;10189;49.546;7.906;2022-12-17T00:25:06;98759.00;;;-5.70
20058;BMP180;10189;49.546;7.906;2022-12-17T00:27:50;98776.00;;;-5.80
20058;BMP180;10189;49.546;7.906;2022-12-17T00:30:36;98768.00;;;-5.80
20058;BMP180;10189;49.546;7.906;2022-12-17T00:33:21;98769.00;;;-5.80
20058;BMP180;10189;49.546;7.906;2022-12-17T00:36:09;98783.00;;;-5.90
20058;BMP180;10189;49.546;7.906;2022-12-17T00:38:54;98788.00;;;-5.90
20058;BMP180;10189;49.546;7.906;2022-12-17T00:41:38;98783.00;;;-6.00
20058;BMP180;10189;49.546;7.906;2022-12-17T00:44:22;98791.00;;;-6.00
20058;BMP180;10189;49.546;7.906;2022-12-17T00:47:07;98806.00;;;-6.00
20058;BMP180;10189;49.546;7.906;2022-12-17T00:49:51;98808.00;;;-6.10
20058;BMP180;10189;49.546;7.906;2022-12-17T00:52:36;98804.00;;;-6.10
20058;BMP180;10189;49.546;7.906;2022-12-17T00:55:20;98798.00;;;-6.10
20058;BMP180;10189;49.546;7.906;2022-12-17T00:58:04;98811.00;;;-6.10
20058;BMP180;10189;49.546;7.906;2022-12-17T01:00:49;98799.00;;;-6.10
20058;BMP180;10189;49.546;7.906;2022-12-17T01:03:33;98803.00;;;-6.10
20058;BMP180;10189;49.546;7.906;2022-12-17T01:06:17;98810.00;;;-6.10
20058;BMP180;10189;49.546;7.906;2022-12-17T01:09:02;98808.00;;;-6.10
20058;BMP180;10189;49.546;7.906;2022-12-17T01:11:47;98822.00;;;-6.00
20058;BMP180;10189;49.546;7.906;2022-12-17T01:14:31;98814.00;;;-6.00
20058;BMP180;10189;49.546;7.906;2022-12-17T01:17:16;98807.00;;;-6.00
20058;BMP180;10189;49.546;7.906;2022-12-17T01:20:01;98809.00;;;-6.00
20058;BMP180;10189;49.546;7.906;2022-12-17T01:22:46;98807.00;;;-6.00
20058;BMP180;10189;49.546;7.906;2022-12-17T01:25:30;98808.00;;;-6.10
20058;BMP180;10189;49.546;7.906;2022-12-17T01:28:22;98818.00;;;-6.10
20058;BMP180;10189;49.546;7.906;2022-12-17T01:31:09;98827.00;;;-6.10
20058;BMP180;10189;49.546;7.906;2022-12-17T01:33:55;98829.00;;;-6.10
20058;BMP180;10189;49.546;7.906;2022-12-17T01:36:39;98828.00;;;-6.20
20058;BMP180;10189;49.546;7.906;2022-12-17T01:39:24;98831.00;;;-6.00
20058;BMP180;10189;49.546;7.906;2022-12-17T01:42:11;98827.00;;;-6.10
20058;BMP180;10189;49.546;7.906;2022-12-17T01:44:56;98827.00;;;-6.20
20058;BMP180;10189;49.546;7.906;2022-12-17T01:47:47;98831.00;;;-6.20
20058;BMP180;10189;49.546;7.906;2022-12-17T01:50:44;98861.00;;;-6.20
20058;BMP180;10189;49.546;7.906;2022-12-17T01:53:36;98857.00;;;-6.20
20058;BMP180;10189;49.546;7.906;2022-12-17T01:56:23;98865.00;;;-6.20
20058;BMP180;10189;49.546;7.906;2022-12-17T01:59:10;98864.00;;;-6.20
20058;BMP180;10189;49.546;7.906;2022-12-17T02:01:55;98849.00;;;-6.10
20058;BMP180;10189;49.546;7.906;2022-12-17T02:04:40;98853.00;;;-6.20
20058;BMP180;10189;49.546;7.906;2022-12-17T02:10:32;98861.00;;;-6.20
20058;BMP180;10189;49.546;7.906;2022-12-17T02:13:28;98859.00;;;-6.20
20058;BMP180;10189;49.546;7.906;2022-12-17T02:16:24;98867.00;;;-6.20
20058;BMP180;10189;49.546;7.906;2022-12-17T02:19:41;98861.00;;;-6.20
20058;BMP180;10189;49.546;7.906;2022-12-17T02:26:41;98887.00;;;-6.30
20058;BMP180;10189;49.546;7.906;2022-12-17T02:29:31;98886.00;;;-6.20
20058;BMP180;10189;49.546;7.906;2022-12-17T02:32:19;98883.00;;;-6.20
20058;BMP180;10189;49.546;7.906;2022-12-17T02:35:12;98880.00;;;-6.20
20058;BMP180;10189;49.546;7.906;2022-12-17T02:37:57;98870.00;;;-6.30
20058;BMP180;10189;49.546;7.906;2022-12-17T02:40:46;98881.00;;;-6.30
20058;BMP180;10189;49.546;7.906;2022-12-17T02:43:34;98883.00;;;-6.40
20058;BMP180;10189;49.546;7.906;2022-12-17T02:46:20;98887.00;;;-6.50
20058;BMP180;10189;49.546;7.906;2022-12-17T02:49:04;98880.00;;;-6.50
20058;BMP180;10189;49.546;7.906;2022-12-17T02:51:53;98900.00;;;-6.50
20058;BMP180;10189;49.546;7.906;2022-12-17T02:54:37;98899.00;;;-6.50
20058;BMP180;10189;49.546;7.906;2022-12-17T02:57:22;98890.00;;;-6.60
20058;BMP180;10189;49.546;7.906;2022-12-17T03:00:08;98892.00;;;-6.60
20058;BMP180;10189;49.546;7.906;2022-12-17T03:02:52;98890.00;;;-6.60
20058;BMP180;10189;49.546;7.906;2022-12-17T03:05:37;98891.00;;;-6.60
20058;BMP180;10189;49.546;7.906;2022-12-17T03:08:21;98890.00;;;-6.60
20058;BMP180;10189;49.546;7.906;2022-12-17T03:11:05;98911.00;;;-6.60
20058;BMP180;10189;49.546;7.906;2022-12-17T03:13:50;98911.00;;;-6.60
20058;BMP180;10189;49.546;7.906;2022-12-17T03:16:34;98901.00;;;-6.70
20058;BMP180;10189;49.546;7.906;2022-12-17T03:19:19;98907.00;;;-6.70
20058;BMP180;10189;49.546;7.906;2022-12-17T03:22:03;98910.00;;;-6.70
20058;BMP180;10189;49.546;7.906;2022-12-17T03:24:47;98921.00;;;-6.60
20058;BMP180;10189;49.546;7.906;2022-12-17T03:27:32;98918.00;;;-6.60
20058;BMP180;10189;49.546;7.906;2022-12-17T03:30:16;98922.00;;;-6.70
20058;BMP180;10189;49.546;7.906;2022-12-17T03:33:01;98923.00;;;-6.70
20058;BMP180;10189;49.546;7.906;2022-12-17T03:35:45;98937.00;;;-6.70
20058;BMP180;10189;49.546;7.906;2022-12-17T03:38:29;98931.00;;;-6.70
20058;BMP180;10189;49.546;7.906;2022-12-17T03:41:14;98930.00;;;-6.70
20058;BMP180;10189;49.546;7.906;2022-12-17T03:43:58;98933.00;;;-6.70
20058;BMP180;10189;49.546;7.906;2022-12-17T03:46:42;98939.00;;;-6.70
20058;BMP180;10189;49.546;7.906;2022-12-17T03:49:27;98945.00;;;-6.70
20058;BMP180;10189;49.546;7.906;2022-12-17T03:52:11;98934.00;;;-6.70
20058;BMP180;10189;49.546;7.906;2022-12-17T03:54:56;98946.00;;;-6.70
20058;BMP180;10189;49.546;7.906;2022-12-17T03:57:40;98949.00;;;-6.70
20058;BMP180;10189;49.546;7.906;2022-12-17T04:00:25;98948.00;;;-6.70
20058;BMP180;10189;49.546;7.906;2022-12-17T04:03:09;98943.00;;;-6.80
20058;BMP180;10189;49.546;7.906;2022-12-17T04:05:54;98951.00;;;-6.80
20058;BMP180;10189;49.546;7.906;2022-12-17T04:08:38;98939.00;;;-6.80
20058;BMP180;10189;49.546;7.906;2022-12-17T04:11:22;98940.00;;;-6.80
20058;BMP180;10189;49.546;7.906;2022-12-17T04:14:07;98949.00;;;-6.90
20058;BMP180;10189;49.546;7.906;2022-12-17T04:16:51;98951.00;;;-6.90
20058;BMP180;10189;49.546;7.906;2022-12-17T04:19:35;98953.00;;;-6.90
20058;BMP180;10189;49.546;7.906;2022-12-17T04:22:20;98958.00;;;-7.00
20058;BMP180;10189;49.546;7.906;2022-12-17T04:25:05;98946.00;;;-7.00
20058;BMP180;10189;49.546;7.906;2022-12-17T04:27:49;98951.00;;;-7.00
20058;BMP180;10189;49.546;7.906;2022-12-17T04:30:33;98948.00;;;-6.90
20058;BMP180;10189;49.546;7.906;2022-12-17T04:33:18;98956.00;;;-6.90
20058;BMP180;10189;49.546;7.906;2022-12-17T04:36:02;98968.00;;;-6.90
20058;BMP180;10189;49.546;7.906;2022-12-17T04:38:47;98967.00;;;-6.90
20058;BMP180;10189;49.546;7.906;2022-12-17T04:41:31;98969.00;;;-7.00
20058;BMP180;10189;49.546;7.906;2022-12-17T04:44:16;98978.00;;;-7.00
20058;BMP180;10189;49.546;7.906;2022-12-17T04:47:00;98979.00;;;-7.10
20058;BMP180;10189;49.546;7.906;2022-12-17T04:49:45;98987.00;;;-7.10
20058;BMP180;10189;49.546;7.906;2022-12-17T04:52:29;98989.00;;;-7.10
20058;BMP180;10189;49.546;7.906;2022-12-17T04:55:14;98981.00;;;-7.10
20058;BMP180;10189;49.546;7.906;2022-12-17T04:58:06;98992.00;;;-7.10
20058;BMP180;10189;49.546;7.906;2022-12-17T05:00:52;98976.00;;;-7.20
20058;BMP180;10189;49.546;7.906;2022-12-17T05:03:36;98983.00;;;-7.20
20058;BMP180;10189;49.546;7.906;2022-12-17T05:06:21;98990.00;;;-7.10
20058;BMP180;10189;49.546;7.906;2022-12-17T05:09:05;99000.00;;;-7.10
20058;BMP180;10189;49.546;7.906;2022-12-17T05:11:50;98993.00;;;-7.10
20058;BMP180;10189;49.546;7.906;2022-12-17T05:14:35;98994.00;;;-7.20
20058;BMP180;10189;49.546;7.906;2022-12-17T05:17:20;99007.00;;;-7.20
20058;BMP180;10189;49.546;7.906;2022-12-17T05:20:05;99010.00;;;-7.20
20058;BMP180;10189;49.546;7.906;2022-12-17T05:22:49;99010.00;;;-7.10
20058;BMP180;10189;49.546;7.906;2022-12-17T05:25:34;99008.00;;;-7.10
20058;BMP180;10189;49.546;7.906;2022-12-17T05:28:18;99017.00;;;-7.10
20058;BMP180;10189;49.546;7.906;2022-12-17T05:31:02;99028.00;;;-7.10
20058;BMP180;10189;49.546;7.906;2022-12-17T05:33:46;99026.00;;;-7.10
20058;BMP180;10189;49.546;7.906;2022-12-17T05:36:45;99040.00;;;-7.20
20058;BMP180;10189;49.546;7.906;2022-12-17T05:39:29;99035.00;;;-7.20
20058;BMP180;10189;49.546;7.906;2022-12-17T05:42:27;99034.00;;;-7.10
20058;BMP180;10189;49.546;7.906;2022-12-17T05:45:16;99027.00;;;-7.20
20058;BMP180;10189;49.546;7.906;2022-12-17T05:48:01;99047.00;;;-7.20
20058;BMP180;10189;49.546;7.906;2022-12-17T05:50:49;99038.00;;;-7.20
20058;BMP180;10189;49.546;7.906;2022-12-17T05:53:35;99036.00;;;-7.20
20058;BMP180;10189;49.546;7.906;2022-12-17T05:56:19;99044.00;;;-7.20
20058;BMP180;10189;49.546;7.906;2022-12-17T05:59:03;99050.00;;;-7.20
20058;BMP180;10189;49.546;7.906;2022-12-17T06:01:48;99056.00;;;-7.30
20058;BMP180;10189;49.546;7.906;2022-12-17T06:04:33;99060.00;;;-7.30
20058;BMP180;10189;49.546;7.906;2022-12-17T06:07:17;99063.00;;;-7.30
20058;BMP180;10189;49.546;7.906;2022-12-17T06:10:02;99054.00;;;-7.30
20058;BMP180;10189;49.546;7.906;2022-12-17T06:12:56;99072.00;;;-7.30
20058;BMP180;10189;49.546;7.906;2022-12-17T06:15:55;99063.00;;;-7.30
20058;BMP180;10189;49.546;7.906;2022-12-17T06:18:39;99068.00;;;-7.30
20058;BMP180;10189;49.546;7.906;2022-12-17T06:21:24;99074.00;;;-7.30
20058;BMP180;10189;49.546;7.906;2022-12-17T06:24:09;99074.00;;;-7.30
20058;BMP180;10189;49.546;7.906;2022-12-17T06:26:53;99082.00;;;-7.30
20058;BMP180;10189;49.546;7.906;2022-12-17T06:29:38;99096.00;;;-7.20
20058;BMP180;10189;49.546;7.906;2022-12-17T06:32:22;99095.00;;;-7.20
20058;BMP180;10189;49.546;7.906;2022-12-17T06:35:07;99082.00;;;-7.10
20058;BMP180;10189;49.546;7.906;2022-12-17T06:38:06;99100.00;;;-7.10
20058;BMP180;10189;49.546;7.906;2022-12-17T06:40:51;99092.00;;;-7.10
20058;BMP180;10189;49.546;7.906;2022-12-17T06:43:36;99091.00;;;-7.20
20058;BMP180;10189;49.546;7.906;2022-12-17T06:46:25;99092.00;;;-7.30
20058;BMP180;10189;49.546;7.906;2022-12-17T06:49:11;99097.00;;;-7.30
20058;BMP180;10189;49.546;7.906;2022-12-17T06:51:56;99101.00;;;-7.30
20058;BMP180;10189;49.546;7.906;2022-12-17T06:54:44;99110.00;;;-7.30
20058;BMP180;10189;49.546;7.906;2022-12-17T06:57:28;99115.00;;;-7.40
20058;BMP180;10189;49.546;7.906;2022-12-17T07:00:14;99127.00;;;-7.30
20058;BMP180;10189;49.546;7.906;2022-12-17T07:02:59;99132.00;;;-7.40
20058;BMP180;10189;49.546;7.906;2022-12-17T07:05:45;99130.00;;;-7.40
20058;BMP180;10189;49.546;7.906;2022-12-17T07:08:30;99134.00;;;-7.40
20058;BMP180;10189;49.546;7.906;2022-12-17T07:11:16;99132.00;;;-7.50
20058;BMP180;10189;49.546;7.906;2022-12-17T07:14:01;99143.00;;;-7.40
20058;BMP180;10189;49.546;7.906;2022-12-17T07:16:46;99151.00;;;-7.40
20058;BMP180;10189;49.546;7.906;2022-12-17T07:19:31;99149.00;;;-7.40
20058;BMP180;10189;49.546;7.906;2022-12-17T07:22:16;99149.00;;;-7.40
20058;BMP180;10189;49.546;7.906;2022-12-17T07:25:01;99151.00;;;-7.40
20058;BMP180;10189;49.546;7.906;2022-12-17T07:27:53;99161.00;;;-7.40
20058;BMP180;10189;49.546;7.906;2022-12-17T07:30:39;99167.00;;;-7.40
20058;BMP180;10189;49.546;7.906;2022-12-17T07:33:23;99156.00;;;-7.40
20058;BMP180;10189;49.546;7.906;2022-12-17T07:36:08;99165.00;;;-7.40
20058;BMP180;10189;49.546;7.906;2022-12-17T07:38:54;99170.00;;;-7.40
20058;BMP180;10189;49.546;7.906;2022-12-17T07:41:40;99174.00;;;-7.30
20058;BMP180;10189;49.546;7.906;2022-12-17T07:44:26;99164.00;;;-7.20
20058;BMP180;10189;49.546;7.906;2022-12-17T07:47:10;99172.00;;;-7.20
20058;BMP180;10189;49.546;7.906;2022-12-17T07:49:56;99172.00;;;-7.20
20058;BMP180;10189;49.546;7.906;2022-12-17T07:52:40;99170.00;;;-7.20
20058;BMP180;10189;49.546;7.906;2022-12-17T07:55:25;99174.00;;;-7.10
20058;BMP180;10189;49.546;7.906;2022-12-17T07:58:10;99171.00;;;-7.10
20058;BMP180;10189;49.546;7.906;2022-12-17T08:00:59;99177.00;;;-7.00
20058;BMP180;10189;49.546;7.906;2022-12-17T08:03:45;99187.00;;;-6.90
20058;BMP180;10189;49.546;7.906;2022-12-17T08:06:30;99196.00;;;-6.90
20058;BMP180;10189;49.546;7.906;2022-12-17T08:09:15;99186.00;;;-6.80
20058;BMP180;10189;49.546;7.906;2022-12-17T08:11:59;99183.00;;;-6.60
20058;BMP180;10189;49.546;7.906;2022-12-17T08:14:44;99175.00;;;-6.50
20058;BMP180;10189;49.546;7.906;2022-12-17T08:17:29;99173.00;;;-6.40
20058;BMP180;10189;49.546;7.906;2022-12-17T08:20:13;99176.00;;;-6.30
20058;BMP180;10189;49.546;7.906;2022-12-17T08:23:05;99165.00;;;-6.20
20058;BMP180;10189;49.546;7.906;2022-12-17T08:25:50;99177.00;;;-6.20
20058;BMP180;10189;49.546;7.906;2022-12-17T08:28:35;99164.00;;;-6.10
20058;BMP180;10189;49.546;7.906;2022-12-17T08:31:21;99171.00;;;-6.10
20058;BMP180;10189;49.546;7.906;2022-12-17T08:34:06;99176.00;;;-6.20
20058;BMP180;10189;49.546;7.906;2022-12-17T08:36:50;99186.00;;;-6.10
20058;BMP180;10189;49.546;7.906;2022-12-17T08:39:35;99185.00;;;-5.90
20058;BMP180;10189;49.546;7.906;2022-12-17T08:42:19;99195.00;;;-5.80
20058;BMP180;10189;49.546;7.906;2022-12-17T08:45:04;99179.00;;;-5.50
20058;BMP180;10189;49.546;7.906;2022-12-17T08:47:49;99171.00;;;-5.30
20058;BMP180;10189;49.546;7.906;2022-12-17T08:50:34;99159.00;;;-5.10
20058;BMP180;10189;49.546;7.906;2022-12-17T08:53:18;99162.00;;;-4.90
20058;BMP180;10189;49.546;7.906;2022-12-17T08:56:03;99165.00;;;-4.80
20058;BMP180;10189;49.546;7.906;2022-12-17T08:58:47;99165.00;;;-4.70
20058;BMP180;10189;49.546;7.906;2022-12-17T09:01:32;99161.00;;;-4.80
20058;BMP180;10189;49.546;7.906;2022-12-17T09:04:17;99164.00;;;-4.70
20058;BMP180;10189;49.546;7.906;2022-12-17T09:07:01;99162.00;;;-4.50
20058;BMP180;10189;49.546;7.906;2022-12-17T09:09:46;99164.00;;;-4.30
20058;BMP180;10189;49.546;7.906;2022-12-17T09:12:30;99149.00;;;-4.00
20058;BMP180;10189;49.546;7.906;2022-12-17T09:15:15;99139.00;;;-3.80
20058;BMP180;10189;49.546;7.906;2022-12-17T09:17:59;99150.00;;;-3.50
20058;BMP180;10189;49.546;7.906;2022-12-17T09:20:54;99151.00;;;-3.40
20058;BMP180;10189;49.546;7.906;2022-12-17T09:23:39;99155.00;;;-3.30
20058;BMP180;10189;49.546;7.906;2022-12-17T09:26:23;99148.00;;;-3.10
20058;BMP180;10189;49.546;7.906;2022-12-17T09:29:08;99140.00;;;-3.10
20058;BMP180;10189;49.546;7.906;2022-12-17T09:31:53;99145.00;;;-2.80
20058;BMP180;10189;49.546;7.906;2022-12-17T09:34:38;99140.00;;;-2.50
20058;BMP180;10189;49.546;7.906;2022-12-17T09:37:22;99150.00;;;-2.40
20058;BMP180;10189;49.546;7.906;2022-12-17T09:40:15;99151.00;;;-2.40
20058;BMP180;10189;49.546;7.906;2022-12-17T09:46:39;99154.00;;;-2.40
20058;BMP180;10189;49.546;7.906;2022-12-17T09:49:28;99158.00;;;-2.50
20058;BMP180;10189;49.546;7.906;2022-12-17T09:52:27;99156.00;;;-2.60
20058;BMP180;10189;49.546;7.906;2022-12-17T09:55:46;99154.00;;;-2.60
20058;BMP180;10189;49.546;7.906;2022-12-17T09:58:38;99149.00;;;-2.20
20058;BMP180;10189;49.546;7.906;2022-12-17T10:01:25;99145.00;;;-1.70
20058;BMP180;10189;49.546;7.906;2022-12-17T10:04:32;99152.00;;;-1.80
20058;BMP180;10189;49.546;7.906;2022-12-17T10:07:32;99151.00;;;-1.60
20058;BMP180;10189;49.546;7.906;2022-12-17T10:10:23;99141.00;;;-1.50
20058;BMP180;10189;49.546;7.906;2022-12-17T10:13:28;99146.00;;;-1.70
20058;BMP180;10189;49.546;7.906;2022-12-17T10:16:45;99152.00;;;-1.50
20058;BMP180;10189;49.546;7.906;2022-12-17T10:19:35;99154.00;;;-1.70
20058;BMP180;10189;49.546;7.906;2022-12-17T10:22:21;99151.00;;;-1.70
20058;BMP180;10189;49.546;7.906;2022-12-17T10:25:20;99147.00;;;-1.70
20058;BMP180;10189;49.546;7.906;2022-12-17T10:28:22;99149.00;;;-2.00
20058;BMP180;10189;49.546;7.906;2022-12-17T10:31:14;99151.00;;;-1.90
20058;BMP180;10189;49.546;7.906;2022-12-17T10:34:00;99148.00;;;-1.90
20058;BMP180;10189;49.546;7.906;2022-12-17T10:36:54;99148.00;;;-1.90
20058;BMP180;10189;49.546;7.906;2022-12-17T10:39:40;99157.00;;;-2.10
20058;BMP180;10189;49.546;7.906;2022-12-17T10:42:30;99162.00;;;-2.10
20058;BMP180;10189;49.546;7.906;2022-12-17T10:45:35;99149.00;;;-1.90
20058;BMP180;10189;49.546;7.906;2022-12-17T10:48:26;99152.00;;;-1.70
20058;BMP180;10189;49.546;7.906;2022-12-17T10:54:32;99152.00;;;-1.50
20058;BMP180;10189;49.546;7.906;2022-12-17T10:57:34;99161.00;;;-1.30
20058;BMP180;10189;49.546;7.906;2022-12-17T11:00:36;99145.00;;;-1.50
20058;BMP180;10189;49.546;7.906;2022-12-17T11:03:52;99148.00;;;-1.50
20058;BMP180;10189;49.546;7.906;2022-12-17T11:06:48;99145.00;;;-1.30
20058;BMP180;10189;49.546;7.906;2022-12-17T11:09:46;99147.00;;;-1.30
20058;BMP180;10189;49.546;7.906;2022-12-17T11:12:56;99148.00;;;-1.10
20058;BMP180;10189;49.546;7.906;2022-12-17T11:24:39;99156.00;;;-1.10
20058;BMP180;10189;49.546;7.906;2022-12-17T11:27:36;99143.00;;;-1.10
20058;BMP180;10189;49.546;7.906;2022-12-17T11:30:26;99163.00;;;-1.20
20058;BMP180;10189;49.546;7.906;2022-12-17T11:33:28;99159.00;;;-1.10
20058;BMP180;10189;49.546;7.906;2022-12-17T11:36:35;99150.00;;;-1.10
20058;BMP180;10189;49.546;7.906;2022-12-17T11:39:31;99147.00;;;-1.00
20058;BMP180;10189;49.546;7.906;2022-12-17T11:42:29;99162.00;;;-0.80
20058;BMP180;10189;49.546;7.906;2022-12-17T11:48:56;99161.00;;;-0.70
20058;BMP180;10189;49.546;7.906;2022-12-17T11:55:15;99148.00;;;-0.60
20058;BMP180;10189;49.546;7.906;2022-12-17T11:58:06;99143.00;;;-0.60
20058;BMP180;10189;49.546;7.906;2022-12-17T12:10:46;99146.00;;;-0.40
20058;BMP180;10189;49.546;7.906;2022-12-17T12:13:55;99141.00;;;-0.30
20058;BMP180;10189;49.546;7.906;2022-12-17T12:16:51;99144.00;;;-0.20
20058;BMP180;10189;49.546;7.906;2022-12-17T12:19:56;99136.00;;;-0.20
20058;BMP180;10189;49.546;7.906;2022-12-17T12:23:37;99131.00;;;-0.10
20058;BMP180;10189;49.546;7.906;2022-12-17T12:32:25;99134.00;;;0.00
20058;BMP180;10189;49.546;7.906;2022-12-17T12:35:22;99134.00;;;0.00
20058;BMP180;10189;49.546;7.906;2022-12-17T12:38:20;99127.00;;;0.00
20058;BMP180;10189;49.546;7.906;2022-12-17T12:41:56;99134.00;;;-0.10
20058;BMP180;10189;49.546;7.906;2022-12-17T12:51:25;99126.00;;;0.00
20058;BMP180;10189;49.546;7.906;2022-12-17T12:57:37;99124.00;;;-0.20
20058;BMP180;10189;49.546;7.906;2022-12-17T13:00:30;99117.00;;;-0.30
20058;BMP180;10189;49.546;7.906;2022-12-17T13:03:29;99119.00;;;-0.30
20058;BMP180;10189;49.546;7.906;2022-12-17T13:11:46;99124.00;;;-0.60
20058;BMP180;10189;49.546;7.906;2022-12-17T13:14:19;99126.00;;;-0.60
20058;BMP180;10189;49.546;7.906;2022-12-17T13:24:47;99129.00;;;-1.20
20058;BMP180;10189;49.546;7.906;2022-12-17T13:30:17;99129.00;;;-1.30
20058;BMP180;10189;49.546;7.906;2022-12-17T13:33:43;99139.00;;;-1.30
20058;BMP180;10189;49.546;7.906;2022-12-17T13:36:54;99132.00;;;-1.30
20058;BMP180;10189;49.546;7.906;2022-12-17T13:42:34;99141.00;;;-1.50
20058;BMP180;10189;49.546;7.906;2022-12-17T13:45:01;99146.00;;;-1.60
20058;BMP180;10189;49.546;7.906;2022-12-17T13:47:34;99142.00;;;-1.70
20058;BMP180;10189;49.546;7.906;2022-12-17T13:50:13;99146.00;;;-1.70
20058;BMP180;10189;49.546;7.906;2022-12-17T13:52:42;99157.00;;;-1.70
20058;BMP180;10189;49.546;7.906;2022-12-17T13:55:22;99163.00;;;-1.80
20058;BMP180;10189;49.546;7.906;2022-12-17T13:57:49;99164.00;;;-1.80
20058;BMP180;10189;49.546;7.906;2022-12-17T14:00:26;99158.00;;;-1.80
20058;BMP180;10189;49.546;7.906;2022-12-17T14:02:53;99163.00;;;-1.90
20058;BMP180;10189;49.546;7.906;2022-12-17T14:05:23;99157.00;;;-1.90
20058;BMP180;10189;49.546;7.906;2022-12-17T14:07:51;99161.00;;;-2.00
20058;BMP180;10189;49.546;7.906;2022-12-17T14:10:18;99169.00;;;-2.20
20058;BMP180;10189;49.546;7.906;2022-12-17T14:12:45;99171.00;;;-2.10
20058;BMP180;10189;49.546;7.906;2022-12-17T14:15:25;99179.00;;;-2.30
20058;BMP180;10189;49.546;7.906;2022-12-17T14:17:53;99180.00;;;-2.30
20058;BMP180;10189;49.546;7.906;2022-12-17T14:20:24;99184.00;;;-2.40
20058;BMP180;10189;49.546;7.906;2022-12-17T14:23:06;99188.00;;;-2.40
20058;BMP180;10189;49.546;7.906;2022-12-17T14:25:36;99189.00;;;-2.50
20058;BMP180;10189;49.546;7.906;2022-12-17T14:28:19;99192.00;;;-2.70
20058;BMP180;10189;49.546;7.906;2022-12-17T14:30:46;99201.00;;;-2.70
20058;BMP180;10189;49.546;7.906;2022-12-17T14:33:34;99202.00;;;-2.80
20058;BMP180;10189;49.546;7.906;2022-12-17T14:36:17;99194.00;;;-2.80
20058;BMP180;10189;49.546;7.906;2022-12-17T14:38:55;99203.00;;;-2.80
20058;BMP180;10189;49.546;7.906;2022-12-17T14:41:21;99211.00;;;-2.90
20058;BMP180;10189;49.546;7.906;2022-12-17T14:44:16;99208.00;;;-2.90
20058;BMP180;10189;49.546;7.906;2022-12-17T14:46:43;99213.00;;;-3.00
20058;BMP180;10189;49.546;7.906;2022-12-17T14:49:18;99212.00;;;-3.00
20058;BMP180;10189;49.546;7.906;2022-12-17T14:51:47;99220.00;;;-3.00
20058;BMP180;10189;49.546;7.906;2022-12-17T14:56:56;99212.00;;;-3.10
20058;BMP180;10189;49.546;7.906;2022-12-17T15:01:53;99229.00;;;-3.30
20058;BMP180;10189;49.546;7.906;2022-12-17T15:04:20;99223.00;;;-3.40
20058;BMP180;10189;49.546;7.906;2022-12-17T15:06:48;99226.00;;;-3.40
20058;BMP180;10189;49.546;7.906;2022-12-17T15:09:14;99237.00;;;-3.50
20058;BMP180;10189;49.546;7.906;2022-12-17T15:11:41;99239.00;;;-3.50
20058;BMP180;10189;49.546;7.906;2022-12-17T15:14:08;99243.00;;;-3.50
20058;BMP180;10189;49.546;7.906;2022-12-17T15:16:34;99235.00;;;-3.50
20058;BMP180;10189;49.546;7.906;2022-12-17T15:19:00;99237.00;;;-3.50
20058;BMP180;10189;49.546;7.906;2022-12-17T15:21:26;99245.00;;;-3.40
20058;BMP180;10189;49.546;7.906;2022-12-17T15:23:52;99242.00;;;-3.40
20058;BMP180;10189;49.546;7.906;2022-12-17T15:26:18;99245.00;;;-3.50
20058;BMP180;10189;49.546;7.906;2022-12-17T15:28:44;99255.00;;;-3.50
20058;BMP180;10189;49.546;7.906;2022-12-17T15:31:13;99256.00;;;-3.50
20058;BMP180;10189;49.546;7.906;2022-12-17T15:33:40;99266.00;;;-3.70
20058;BMP180;10189;49.546;7.906;2022-12-17T15:36:08;99260.00;;;-3.80
20058;BMP180;10189;49.546;7.906;2022-12-17T15:38:34;99272.00;;;-3.90
20058;BMP180;10189;49.546;7.906;2022-12-17T15:41:01;99280.00;;;-3.90
20058;BMP180;10189;49.546;7.906;2022-12-17T15:43:49;99290.00;;;-3.90
20058;BMP180;10189;49.546;7.906;2022-12-17T15:46:14;99281.00;;;-4.00
20058;BMP180;10189;49.546;7.906;2022-12-17T15:48:41;99286.00;;;-4.10
20058;BMP180;10189;49.546;7.906;2022-12-17T15:51:07;99275.00;;;-4.20
20058;BMP180;10189;49.546;7.906;2022-12-17T15:53:33;99283.00;;;-4.20
20058;BMP180;10189;49.546;7.906;2022-12-17T15:56:00;99278.00;;;-4.30
20058;BMP180;10189;49.546;7.906;2022-12-17T15:58:27;99296.00;;;-4.30
20058;BMP180;10189;49.546;7.906;2022-12-17T16:00:53;99292.00;;;-4.30
20058;BMP180;10189;49.546;7.906;2022-12-17T16:03:19;99292.00;;;-4.40
20058;BMP180;10189;49.546;7.906;2022-12-17T16:05:45;99304.00;;;-4.40
20058;BMP180;10189;49.546;7.906;2022-12-17T16:08:11;99308.00;;;-4.40
20058;BMP180;10189;49.546;7.906;2022-12-17T16:10:38;99314.00;;;-4.50
20058;BMP180;10189;49.546;7.906;2022-12-17T16:13:04;99296.00;;;-4.40
20058;BMP180;10189;49.546;7.906;2022-12-17T16:15:30;99297.00;;;-4.50
20058;BMP180;10189;49.546;7.906;2022-12-17T16:17:57;99305.00;;;-4.60
20058;BMP180;10189;49.546;7.906;2022-12-17T16:20:24;99311.00;;;-4.50
20058;BMP180;10189;49.546;7.906;2022-12-17T16:22:50;99309.00;;;-4.60
20058;BMP180;10189;49.546;7.906;2022-12-17T16:25:16;99317.00;;;-4.70
20058;BMP180;10189;49.546;7.906;2022-12-17T16:27:43;99308.00;;;-4.60
20058;BMP180;10189;49.546;7.906;2022-12-17T16:30:09;99317.00;;;-4.70
20058;BMP180;10189;49.546;7.906;2022-12-17T16:32:37;99326.00;;;-4.80
20058;BMP180;10189;49.546;7.906;2022-12-17T16:35:04;99315.00;;;-4.80
20058;BMP180;10189;49.546;7.906;2022-12-17T16:37:31;99326.00;;;-4.90
20058;BMP180;10189;49.546;7.906;2022-12-17T16:39:57;99330.00;;;-4.90
20058;BMP180;10189;49.546;7.906;2022-12-17T16:42:23;99316.00;;;-4.80
20058;BMP180;10189;49.546;7.906;2022-12-17T16:44:49;99322.00;;;-4.90
20058;BMP180;10189;49.546;7.906;2022-12-17T16:47:14;99324.00;;;-4.90
20058;BMP180;10189;49.546;7.906;2022-12-17T16:49:40;99337.00;;;-4.90
20058;BMP180;10189;49.546;7.906;2022-12-17T16:52:06;99332.00;;;-4.90
20058;BMP180;10189;49.546;7.906;2022-12-17T16:54:33;99316.00;;;-4.70
20058;BMP180;10189;49.546;7.906;2022-12-17T16:57:00;99319.00;;;-4.60
20058;BMP180;10189;49.546;7.906;2022-12-17T16:59:26;99325.00;;;-4.60
20058;BMP180;10189;49.546;7.906;2022-12-17T17:01:52;99323.00;;;-4.70
20058;BMP180;10189;49.546;7.906;2022-12-17T17:04:21;99316.00;;;-4.50